﻿<?xml version="1.0" encoding="UTF-8"?>
<gpx xmlns="http://www.topografix.com/GPX/1/0" xmlns:xsi="http://www.w3.org/2001/XMLSchema-instance" xsi:schemaLocation="http://www.topografix.com/GPX/1/0 http://www.topografix.com/GPX/1/0/gpx.xsd" creator="Bike Route Toaster http://www.bikeroutetoaster.com" version="1.0">
  <trk>
    <name>Toaster Course</name>
    <trkseg>
      <trkpt lat="47.77281" lon="9.6042">
        <ele>429</ele>
        <time>2011-04-16T00:00:00Z</time>
        <course>208.001228009878</course>
        <speed>8.32009920973059</speed>
      </trkpt>
      <trkpt lat="47.77155" lon="9.60336">
        <ele>428</ele>
        <time>2011-04-16T00:00:18Z</time>
        <course>222.636879030526</course>
        <speed>8.31827527892015</speed>
      </trkpt>
      <trkpt lat="47.77044" lon="9.60208">
        <ele>428</ele>
        <time>2011-04-16T00:00:37Z</time>
        <course>343.816353390824</course>
        <speed>8.33308738491131</speed>
      </trkpt>
      <trkpt lat="47.77055" lon="9.60204">
        <ele>428</ele>
        <time>2011-04-16T00:00:38Z</time>
        <course>212.57042235976</course>
        <speed>8.32018223676734</speed>
      </trkpt>
      <trkpt lat="47.77" lon="9.6016">
        <ele>428</ele>
        <time>2011-04-16T00:00:47Z</time>
        <course>192.198919905526</course>
        <speed>8.31900402889798</speed>
      </trkpt>
      <trkpt lat="47.76915" lon="9.60137">
        <ele>428</ele>
        <time>2011-04-16T00:00:58Z</time>
        <course>223.578135166853</course>
        <speed>8.31314482401249</speed>
      </trkpt>
      <trkpt lat="47.76873" lon="9.60087">
        <ele>427</ele>
        <time>2011-04-16T00:01:05Z</time>
        <course>234.846392911963</course>
        <speed>8.31940502648145</speed>
      </trkpt>
      <trkpt lat="47.76824" lon="9.6">
        <ele>427</ele>
        <time>2011-04-16T00:01:15Z</time>
        <course>254.437398579714</course>
        <speed>8.31882117922287</speed>
      </trkpt>
      <trkpt lat="47.76776" lon="9.59785">
        <ele>426</ele>
        <time>2011-04-16T00:01:36Z</time>
        <course>177.9635505796</course>
        <speed>8.32384468599949</speed>
      </trkpt>
      <trkpt lat="47.76731" lon="9.59787">
        <ele>426</ele>
        <time>2011-04-16T00:01:42Z</time>
        <course>269.355488502801</course>
        <speed>8.31662794997117</speed>
      </trkpt>
      <trkpt lat="47.7673" lon="9.59679">
        <ele>426</ele>
        <time>2011-04-16T00:01:52Z</time>
        <course>195.825843608151</course>
        <speed>8.31988786287499</speed>
      </trkpt>
      <trkpt lat="47.76682" lon="9.59662">
        <ele>426</ele>
        <time>2011-04-16T00:01:58Z</time>
        <course>183.740795175687</course>
        <speed>8.31894781837988</speed>
      </trkpt>
      <trkpt lat="47.76584" lon="9.59654">
        <ele>426</ele>
        <time>2011-04-16T00:02:11Z</time>
        <course>294.925515662662</course>
        <speed>8.31622709722032</speed>
      </trkpt>
      <trkpt lat="47.76652" lon="9.59471">
        <ele>426</ele>
        <time>2011-04-16T00:02:30Z</time>
        <course>271.530546426163</course>
        <speed>8.32268466860194</speed>
      </trkpt>
      <trkpt lat="47.76653" lon="9.59424">
        <ele>425</ele>
        <time>2011-04-16T00:02:34Z</time>
        <course>276.490404375746</course>
        <speed>8.318391225759</speed>
      </trkpt>
      <trkpt lat="47.76659" lon="9.59358">
        <ele>425</ele>
        <time>2011-04-16T00:02:40Z</time>
        <course>292.518099826752</course>
        <speed>8.31930252917117</speed>
      </trkpt>
      <trkpt lat="47.76752" lon="9.59077">
        <ele>424</ele>
        <time>2011-04-16T00:03:08Z</time>
        <course>255.672498623586</course>
        <speed>7.23939143464983</speed>
      </trkpt>
      <trkpt lat="47.76734" lon="9.58989">
        <ele>424</ele>
        <time>2011-04-16T00:03:18Z</time>
        <course>268.369050738559</course>
        <speed>7.24020091138946</speed>
      </trkpt>
      <trkpt lat="47.76732" lon="9.58902">
        <ele>425</ele>
        <time>2011-04-16T00:03:27Z</time>
        <course>187.595383282521</course>
        <speed>6.15495788597233</speed>
      </trkpt>
      <trkpt lat="47.76726" lon="9.58901">
        <ele>425</ele>
        <time>2011-04-16T00:03:28Z</time>
        <course>281.408745029455</course>
        <speed>6.14470716522459</speed>
      </trkpt>
      <trkpt lat="47.76736" lon="9.58839">
        <ele>425</ele>
        <time>2011-04-16T00:03:36Z</time>
        <course>259.51834981952</course>
        <speed>6.14581470708278</speed>
      </trkpt>
      <trkpt lat="47.76728" lon="9.58785">
        <ele>426</ele>
        <time>2011-04-16T00:03:42Z</time>
        <course>235.228500999049</course>
        <speed>6.14148079440443</speed>
      </trkpt>
      <trkpt lat="47.76718" lon="9.58767">
        <ele>427</ele>
        <time>2011-04-16T00:03:45Z</time>
        <course>263.055279809131</course>
        <speed>3.97728654776845</speed>
      </trkpt>
      <trkpt lat="47.76714" lon="9.58726">
        <ele>428</ele>
        <time>2011-04-16T00:03:53Z</time>
        <course>226.306181081362</course>
        <speed>3.97778410756024</speed>
      </trkpt>
      <trkpt lat="47.76688" lon="9.58692">
        <ele>430</ele>
        <time>2011-04-16T00:04:03Z</time>
        <course>255.510444816712</course>
        <speed>3.97592602734831</speed>
      </trkpt>
      <trkpt lat="47.76682" lon="9.58663">
        <ele>432</ele>
        <time>2011-04-16T00:04:08Z</time>
        <course>288.82139482644</course>
        <speed>3.97594943497821</speed>
      </trkpt>
      <trkpt lat="47.76688" lon="9.58641">
        <ele>433</ele>
        <time>2011-04-16T00:04:13Z</time>
        <course>321.338889025176</course>
        <speed>4.69783669051117</speed>
      </trkpt>
      <trkpt lat="47.76722" lon="9.58607">
        <ele>434</ele>
        <time>2011-04-16T00:04:22Z</time>
        <course>294.338177609207</course>
        <speed>4.69975931797703</speed>
      </trkpt>
      <trkpt lat="47.76791" lon="9.58416">
        <ele>441</ele>
        <time>2011-04-16T00:04:57Z</time>
        <course>270.014448528182</course>
        <speed>8.32064391221797</speed>
      </trkpt>
      <trkpt lat="47.76791" lon="9.58332">
        <ele>441</ele>
        <time>2011-04-16T00:05:04Z</time>
        <course>281.594037704378</course>
        <speed>8.31698047399857</speed>
      </trkpt>
      <trkpt lat="47.76818" lon="9.58167">
        <ele>441</ele>
        <time>2011-04-16T00:05:20Z</time>
        <course>259.02689867617</course>
        <speed>6.38765883634683</speed>
      </trkpt>
      <trkpt lat="47.76809" lon="9.58109">
        <ele>441</ele>
        <time>2011-04-16T00:05:27Z</time>
        <course>255.616439914833</course>
        <speed>6.38447526870948</speed>
      </trkpt>
      <trkpt lat="47.76786" lon="9.57997">
        <ele>443</ele>
        <time>2011-04-16T00:05:40Z</time>
        <course>290.139462068042</course>
        <speed>4.78809764365587</speed>
      </trkpt>
      <trkpt lat="47.76803" lon="9.57939">
        <ele>444</ele>
        <time>2011-04-16T00:05:50Z</time>
        <course>305.405150439272</course>
        <speed>4.79104904488249</speed>
      </trkpt>
      <trkpt lat="47.7687" lon="9.57821">
        <ele>449</ele>
        <time>2011-04-16T00:06:14Z</time>
        <course>281.790303548953</course>
        <speed>4.87015362311663</speed>
      </trkpt>
      <trkpt lat="47.7688" lon="9.57761">
        <ele>450</ele>
        <time>2011-04-16T00:06:24Z</time>
        <course>286.606240336826</course>
        <speed>4.86880139830973</speed>
      </trkpt>
      <trkpt lat="47.769" lon="9.57677">
        <ele>453</ele>
        <time>2011-04-16T00:06:38Z</time>
        <course>292.141479046516</course>
        <speed>6.71734150351346</speed>
      </trkpt>
      <trkpt lat="47.76913" lon="9.57637">
        <ele>453</ele>
        <time>2011-04-16T00:06:42Z</time>
        <course>241.716825794</course>
        <speed>6.71294069383724</speed>
      </trkpt>
      <trkpt lat="47.76848" lon="9.57486">
        <ele>455</ele>
        <time>2011-04-16T00:07:02Z</time>
        <course>213.990822066829</course>
        <speed>8.31909980193067</speed>
      </trkpt>
      <trkpt lat="47.76797" lon="9.57443">
        <ele>453</ele>
        <time>2011-04-16T00:07:10Z</time>
        <course>187.492670966478</course>
        <speed>8.31918750938029</speed>
      </trkpt>
      <trkpt lat="47.76724" lon="9.57431">
        <ele>451</ele>
        <time>2011-04-16T00:07:20Z</time>
        <course>211.674610535079</course>
        <speed>8.32015655255198</speed>
      </trkpt>
      <trkpt lat="47.76676" lon="9.57394">
        <ele>448</ele>
        <time>2011-04-16T00:07:27Z</time>
        <course>215.159290749146</course>
        <speed>8.31811967191749</speed>
      </trkpt>
      <trkpt lat="47.76503" lon="9.57242">
        <ele>441</ele>
        <time>2011-04-16T00:07:54Z</time>
        <course>205.590180788038</course>
        <speed>8.32165636885959</speed>
      </trkpt>
      <trkpt lat="47.76431" lon="9.57199">
        <ele>441</ele>
        <time>2011-04-16T00:08:04Z</time>
        <course>155.742676084163</course>
        <speed>8.32110296611956</speed>
      </trkpt>
      <trkpt lat="47.76358" lon="9.5724">
        <ele>441</ele>
        <time>2011-04-16T00:08:15Z</time>
        <course>166.300829064881</course>
        <speed>7.18840694789171</speed>
      </trkpt>
      <trkpt lat="47.76246" lon="9.57274">
        <ele>442</ele>
        <time>2011-04-16T00:08:33Z</time>
        <course>191.898569752165</course>
        <speed>8.32270270113007</speed>
      </trkpt>
      <trkpt lat="47.76185" lon="9.57258">
        <ele>441</ele>
        <time>2011-04-16T00:08:41Z</time>
        <course>167.262832280038</course>
        <speed>8.31915471607809</speed>
      </trkpt>
      <trkpt lat="47.76121" lon="9.57276">
        <ele>441</ele>
        <time>2011-04-16T00:08:50Z</time>
        <course>167.855798360105</course>
        <speed>8.31551862903779</speed>
      </trkpt>
      <trkpt lat="47.7605" lon="9.57295">
        <ele>440</ele>
        <time>2011-04-16T00:08:59Z</time>
        <course>135.754390503303</course>
        <speed>8.3156748675738</speed>
      </trkpt>
      <trkpt lat="47.75993" lon="9.57364">
        <ele>440</ele>
        <time>2011-04-16T00:09:09Z</time>
        <course>95.0596565617255</course>
        <speed>8.31364072152984</speed>
      </trkpt>
      <trkpt lat="47.75987" lon="9.57448">
        <ele>438</ele>
        <time>2011-04-16T00:09:17Z</time>
        <course>96.2454228905371</course>
        <speed>8.31747973566487</speed>
      </trkpt>
      <trkpt lat="47.75954" lon="9.57819">
        <ele>434</ele>
        <time>2011-04-16T00:09:50Z</time>
        <course>183.958023855567</course>
        <speed>8.3175209450086</speed>
      </trkpt>
      <trkpt lat="47.75721" lon="9.57799">
        <ele>430</ele>
        <time>2011-04-16T00:10:21Z</time>
        <course>199.616484834713</course>
        <speed>8.32139958437732</speed>
      </trkpt>
      <trkpt lat="47.75635" lon="9.57761">
        <ele>428</ele>
        <time>2011-04-16T00:10:33Z</time>
        <course>206.656503869785</course>
        <speed>8.31737354075415</speed>
      </trkpt>
      <trkpt lat="47.75487" lon="9.57669">
        <ele>427</ele>
        <time>2011-04-16T00:10:55Z</time>
        <course>193.621676162925</course>
        <speed>8.32288071602926</speed>
      </trkpt>
      <trkpt lat="47.75437" lon="9.57654">
        <ele>425</ele>
        <time>2011-04-16T00:11:02Z</time>
        <course>266.430063084113</course>
        <speed>8.31769266504217</speed>
      </trkpt>
      <trkpt lat="47.7543" lon="9.57516">
        <ele>424</ele>
        <time>2011-04-16T00:11:14Z</time>
        <course>259.490875606971</course>
        <speed>8.3200125098349</speed>
      </trkpt>
      <trkpt lat="47.75421" lon="9.57456">
        <ele>423</ele>
        <time>2011-04-16T00:11:20Z</time>
        <course>220.759805634409</course>
        <speed>8.32089610166601</speed>
      </trkpt>
      <trkpt lat="47.75391" lon="9.57424">
        <ele>423</ele>
        <time>2011-04-16T00:11:24Z</time>
        <course>214.25088920894</course>
        <speed>8.3159381831369</speed>
      </trkpt>
      <trkpt lat="47.75315" lon="9.5736">
        <ele>423</ele>
        <time>2011-04-16T00:11:36Z</time>
        <course>223.065775584348</course>
        <speed>8.32084413860122</speed>
      </trkpt>
      <trkpt lat="47.7527" lon="9.57308">
        <ele>423</ele>
        <time>2011-04-16T00:11:44Z</time>
        <course>263.819285782611</course>
        <speed>8.3227452541944</speed>
      </trkpt>
      <trkpt lat="47.75265" lon="9.57251">
        <ele>423</ele>
        <time>2011-04-16T00:11:49Z</time>
        <course>257.028984193194</course>
        <speed>8.31674423467402</speed>
      </trkpt>
      <trkpt lat="47.75254" lon="9.57192">
        <ele>423</ele>
        <time>2011-04-16T00:11:54Z</time>
        <course>280.513379992673</course>
        <speed>6.14831133612938</speed>
      </trkpt>
      <trkpt lat="47.7526" lon="9.57152">
        <ele>423</ele>
        <time>2011-04-16T00:11:59Z</time>
        <course>254.093924934716</course>
        <speed>6.14417903208522</speed>
      </trkpt>
      <trkpt lat="47.75236" lon="9.57048">
        <ele>425</ele>
        <time>2011-04-16T00:12:13Z</time>
        <course>262.868036910445</course>
        <speed>5.6677177693327</speed>
      </trkpt>
      <trkpt lat="47.75213" lon="9.56822">
        <ele>429</ele>
        <time>2011-04-16T00:12:43Z</time>
        <course>266.435831646783</course>
        <speed>4.69329755606217</speed>
      </trkpt>
      <trkpt lat="47.75206" lon="9.56684">
        <ele>433</ele>
        <time>2011-04-16T00:13:05Z</time>
        <course>276.292421879557</course>
        <speed>5.23605876878162</speed>
      </trkpt>
      <trkpt lat="47.75218" lon="9.56549">
        <ele>436</ele>
        <time>2011-04-16T00:13:24Z</time>
        <course>280.535791881316</course>
        <speed>5.37148683290595</speed>
      </trkpt>
      <trkpt lat="47.75296" lon="9.56026">
        <ele>447</ele>
        <time>2011-04-16T00:14:39Z</time>
        <course>274.868644513681</course>
        <speed>4.25551337651607</speed>
      </trkpt>
      <trkpt lat="47.75303" lon="9.55924">
        <ele>450</ele>
        <time>2011-04-16T00:14:57Z</time>
        <course>288.122374343607</course>
        <speed>4.25600265427607</speed>
      </trkpt>
      <trkpt lat="47.75326" lon="9.55837">
        <ele>454</ele>
        <time>2011-04-16T00:15:13Z</time>
        <course>314.142096160593</course>
        <speed>5.65829414479147</speed>
      </trkpt>
      <trkpt lat="47.75413" lon="9.55726">
        <ele>457</ele>
        <time>2011-04-16T00:15:36Z</time>
        <course>308.557489686918</course>
        <speed>5.37020977483549</speed>
      </trkpt>
      <trkpt lat="47.75639" lon="9.55374">
        <ele>467</ele>
        <time>2011-04-16T00:16:43Z</time>
        <course>297.894357756934</course>
        <speed>4.68969229988352</speed>
      </trkpt>
      <trkpt lat="47.75671" lon="9.55299">
        <ele>469</ele>
        <time>2011-04-16T00:16:58Z</time>
        <course>290.960389807095</course>
        <speed>4.68841973540301</speed>
      </trkpt>
      <trkpt lat="47.75791" lon="9.54909">
        <ele>482</ele>
        <time>2011-04-16T00:18:06Z</time>
        <course>272.692185201128</course>
        <speed>6.23809326895974</speed>
      </trkpt>
      <trkpt lat="47.75797" lon="9.54749">
        <ele>484</ele>
        <time>2011-04-16T00:18:25Z</time>
        <course>280.523027597269</course>
        <speed>5.30491590351648</speed>
      </trkpt>
      <trkpt lat="47.7581" lon="9.54662">
        <ele>485</ele>
        <time>2011-04-16T00:18:38Z</time>
        <course>290.5308830088</course>
        <speed>5.30226127087367</speed>
      </trkpt>
      <trkpt lat="47.75863" lon="9.54486">
        <ele>490</ele>
        <time>2011-04-16T00:19:05Z</time>
        <course>270.004416695798</course>
        <speed>4.65761691074274</speed>
      </trkpt>
      <trkpt lat="47.75863" lon="9.5446">
        <ele>490</ele>
        <time>2011-04-16T00:19:09Z</time>
        <course>318.596585003486</course>
        <speed>4.65884417580891</speed>
      </trkpt>
      <trkpt lat="47.75884" lon="9.54437">
        <ele>491</ele>
        <time>2011-04-16T00:19:15Z</time>
        <course>299.133196474553</course>
        <speed>4.66000244250002</speed>
      </trkpt>
      <trkpt lat="47.75936" lon="9.54321">
        <ele>496</ele>
        <time>2011-04-16T00:19:38Z</time>
        <course>316.487771637678</course>
        <speed>4.66819002112866</speed>
      </trkpt>
      <trkpt lat="47.76008" lon="9.54236">
        <ele>500</ele>
        <time>2011-04-16T00:19:59Z</time>
        <course>342.812694218522</course>
        <speed>4.9570189825828</speed>
      </trkpt>
      <trkpt lat="47.76034" lon="9.54226">
        <ele>501</ele>
        <time>2011-04-16T00:20:06Z</time>
        <course>5.62202232213701</course>
        <speed>4.96212076018165</speed>
      </trkpt>
      <trkpt lat="47.76083" lon="9.54232">
        <ele>502</ele>
        <time>2011-04-16T00:20:17Z</time>
        <course>312.935273930182</course>
        <speed>4.95998329271819</speed>
      </trkpt>
      <trkpt lat="47.76204" lon="9.5407">
        <ele>509</ele>
        <time>2011-04-16T00:20:53Z</time>
        <course>280.96873556256</course>
        <speed>7.26347103844263</speed>
      </trkpt>
      <trkpt lat="47.76211" lon="9.54025">
        <ele>509</ele>
        <time>2011-04-16T00:20:58Z</time>
        <course>230.04287284975</course>
        <speed>7.26652981980949</speed>
      </trkpt>
      <trkpt lat="47.76145" lon="9.53927">
        <ele>510</ele>
        <time>2011-04-16T00:21:12Z</time>
        <course>218.264088635719</course>
        <speed>8.31809384241621</speed>
      </trkpt>
      <trkpt lat="47.76042" lon="9.53826">
        <ele>509</ele>
        <time>2011-04-16T00:21:28Z</time>
        <course>286.292167187468</course>
        <speed>4.82326459964136</speed>
      </trkpt>
      <trkpt lat="47.76091" lon="9.53617">
        <ele>515</ele>
        <time>2011-04-16T00:22:03Z</time>
        <course>279.179334862917</course>
        <speed>5.99705958109526</speed>
      </trkpt>
      <trkpt lat="47.76105" lon="9.53509">
        <ele>516</ele>
        <time>2011-04-16T00:22:16Z</time>
        <course>291.613300970494</course>
        <speed>6.00043735229258</speed>
      </trkpt>
      <trkpt lat="47.76133" lon="9.53421">
        <ele>518</ele>
        <time>2011-04-16T00:22:29Z</time>
        <course>283.886258660796</course>
        <speed>8.3173622587412</speed>
      </trkpt>
      <trkpt lat="47.76157" lon="9.533">
        <ele>517</ele>
        <time>2011-04-16T00:22:40Z</time>
        <course>299.414395618782</course>
        <speed>8.32189084145843</speed>
      </trkpt>
      <trkpt lat="47.762" lon="9.53205">
        <ele>517</ele>
        <time>2011-04-16T00:22:50Z</time>
        <course>283.608755777338</course>
        <speed>8.31593148147494</speed>
      </trkpt>
      <trkpt lat="47.7622" lon="9.53102">
        <ele>516</ele>
        <time>2011-04-16T00:23:00Z</time>
        <course>291.754131212113</course>
        <speed>8.31709826474297</speed>
      </trkpt>
      <trkpt lat="47.76268" lon="9.52952">
        <ele>516</ele>
        <time>2011-04-16T00:23:15Z</time>
        <course>283.127189878267</course>
        <speed>7.65032394124275</speed>
      </trkpt>
      <trkpt lat="47.76323" lon="9.52657">
        <ele>517</ele>
        <time>2011-04-16T00:23:45Z</time>
        <course>297.806568828341</course>
        <speed>6.08032213765364</speed>
      </trkpt>
      <trkpt lat="47.76375" lon="9.52534">
        <ele>519</ele>
        <time>2011-04-16T00:24:02Z</time>
        <course>269.085655961639</course>
        <speed>8.31284043039277</speed>
      </trkpt>
      <trkpt lat="47.76374" lon="9.52457">
        <ele>518</ele>
        <time>2011-04-16T00:24:09Z</time>
        <course>255.133150498364</course>
        <speed>8.3127529451838</speed>
      </trkpt>
      <trkpt lat="47.76361" lon="9.52396">
        <ele>518</ele>
        <time>2011-04-16T00:24:15Z</time>
        <course>275.599049574446</course>
        <speed>7.24455525776558</speed>
      </trkpt>
      <trkpt lat="47.76375" lon="9.52217">
        <ele>519</ele>
        <time>2011-04-16T00:24:34Z</time>
        <course>254.339279371863</course>
        <speed>8.31314784083641</speed>
      </trkpt>
      <trkpt lat="47.76366" lon="9.52177">
        <ele>518</ele>
        <time>2011-04-16T00:24:38Z</time>
        <course>240.760238360284</course>
        <speed>8.31679543884624</speed>
      </trkpt>
      <trkpt lat="47.76299" lon="9.52028">
        <ele>518</ele>
        <time>2011-04-16T00:24:54Z</time>
        <course>245.904212111635</course>
        <speed>7.20795311232679</speed>
      </trkpt>
      <trkpt lat="47.76244" lon="9.51875">
        <ele>519</ele>
        <time>2011-04-16T00:25:12Z</time>
        <course>234.82656766532</course>
        <speed>7.65472461058342</speed>
      </trkpt>
      <trkpt lat="47.76197" lon="9.51792">
        <ele>519</ele>
        <time>2011-04-16T00:25:22Z</time>
        <course>251.967683301035</course>
        <speed>7.65677357579686</speed>
      </trkpt>
      <trkpt lat="47.76148" lon="9.51605">
        <ele>520</ele>
        <time>2011-04-16T00:25:42Z</time>
        <course>239.091176145306</course>
        <speed>8.31985508432537</speed>
      </trkpt>
      <trkpt lat="47.76055" lon="9.51412">
        <ele>520</ele>
        <time>2011-04-16T00:26:03Z</time>
        <course>295.500738521296</course>
        <speed>8.32158107635781</speed>
      </trkpt>
      <trkpt lat="47.76078" lon="9.51352">
        <ele>520</ele>
        <time>2011-04-16T00:26:09Z</time>
        <course>292.77202718269</course>
        <speed>8.31822492627465</speed>
      </trkpt>
      <trkpt lat="47.76107" lon="9.51266">
        <ele>520</ele>
        <time>2011-04-16T00:26:18Z</time>
        <course>319.338509588223</course>
        <speed>8.31520978778523</speed>
      </trkpt>
      <trkpt lat="47.76179" lon="9.51189">
        <ele>520</ele>
        <time>2011-04-16T00:26:30Z</time>
        <course>294.213727077875</course>
        <speed>8.31770026567696</speed>
      </trkpt>
      <trkpt lat="47.76245" lon="9.51006">
        <ele>520</ele>
        <time>2011-04-16T00:26:48Z</time>
        <course>270.029198745575</course>
        <speed>8.31571272487786</speed>
      </trkpt>
      <trkpt lat="47.76245" lon="9.50835">
        <ele>520</ele>
        <time>2011-04-16T00:27:04Z</time>
        <course>285.775523994699</course>
        <speed>8.31936350701906</speed>
      </trkpt>
      <trkpt lat="47.76288" lon="9.50645">
        <ele>520</ele>
        <time>2011-04-16T00:27:22Z</time>
        <course>277.295004949489</course>
        <speed>8.31259064621643</speed>
      </trkpt>
      <trkpt lat="47.76296" lon="9.50567">
        <ele>520</ele>
        <time>2011-04-16T00:27:29Z</time>
        <course>294.423246042629</course>
        <speed>8.31807441233622</speed>
      </trkpt>
      <trkpt lat="47.76388" lon="9.50314">
        <ele>520</ele>
        <time>2011-04-16T00:27:55Z</time>
        <course>283.194687225564</course>
        <speed>8.3183515374162</speed>
      </trkpt>
      <trkpt lat="47.76427" lon="9.50106">
        <ele>520</ele>
        <time>2011-04-16T00:28:14Z</time>
        <course>286.204965002397</course>
        <speed>8.31708033176637</speed>
      </trkpt>
      <trkpt lat="47.76483" lon="9.49865">
        <ele>520</ele>
        <time>2011-04-16T00:28:37Z</time>
        <course>253.646432293863</course>
        <speed>8.33011866793345</speed>
      </trkpt>
      <trkpt lat="47.76475" lon="9.49831">
        <ele>520</ele>
        <time>2011-04-16T00:28:40Z</time>
        <course>232.662676057561</course>
        <speed>8.31666018389189</speed>
      </trkpt>
      <trkpt lat="47.76404" lon="9.49715">
        <ele>520</ele>
        <time>2011-04-16T00:28:54Z</time>
        <course>238.92320846535</course>
        <speed>8.31787178754024</speed>
      </trkpt>
      <trkpt lat="47.76344" lon="9.49591">
        <ele>520</ele>
        <time>2011-04-16T00:29:08Z</time>
        <course>220.144098556399</course>
        <speed>8.31902360524417</speed>
      </trkpt>
      <trkpt lat="47.76203" lon="9.49443">
        <ele>520</ele>
        <time>2011-04-16T00:29:31Z</time>
        <course>205.634361566722</course>
        <speed>8.3176235459588</speed>
      </trkpt>
      <trkpt lat="47.75837" lon="9.49225">
        <ele>520</ele>
        <time>2011-04-16T00:30:24Z</time>
        <course>259.793593400218</course>
        <speed>8.31269046557983</speed>
      </trkpt>
      <trkpt lat="47.75828" lon="9.49163">
        <ele>520</ele>
        <time>2011-04-16T00:30:29Z</time>
        <course>253.469150341991</course>
        <speed>8.31870035171092</speed>
      </trkpt>
      <trkpt lat="47.75788" lon="9.48996">
        <ele>520</ele>
        <time>2011-04-16T00:30:45Z</time>
        <course>264.831694171887</course>
        <speed>8.31919865186276</speed>
      </trkpt>
      <trkpt lat="47.75779" lon="9.48873">
        <ele>520</ele>
        <time>2011-04-16T00:30:56Z</time>
        <course>309.071721014898</course>
        <speed>8.32378896049673</speed>
      </trkpt>
      <trkpt lat="47.75813" lon="9.48821">
        <ele>520</ele>
        <time>2011-04-16T00:31:03Z</time>
        <course>289.875441266108</course>
        <speed>4.90427084937725</speed>
      </trkpt>
      <trkpt lat="47.75854" lon="9.4868">
        <ele>524</ele>
        <time>2011-04-16T00:31:26Z</time>
        <course>302.857396466859</course>
        <speed>6.54021693392066</speed>
      </trkpt>
      <trkpt lat="47.75867" lon="9.48655">
        <ele>524</ele>
        <time>2011-04-16T00:31:30Z</time>
        <course>254.019687680461</course>
        <speed>6.53141203115538</speed>
      </trkpt>
      <trkpt lat="47.75852" lon="9.4859">
        <ele>525</ele>
        <time>2011-04-16T00:31:38Z</time>
        <course>264.78825698229</course>
        <speed>6.53765279503221</speed>
      </trkpt>
      <trkpt lat="47.75845" lon="9.48495">
        <ele>526</ele>
        <time>2011-04-16T00:31:49Z</time>
        <course>276.214651972949</course>
        <speed>8.32390342813285</speed>
      </trkpt>
      <trkpt lat="47.75852" lon="9.48415">
        <ele>525</ele>
        <time>2011-04-16T00:31:56Z</time>
        <course>295.09569504848</course>
        <speed>8.31941011802914</speed>
      </trkpt>
      <trkpt lat="47.7591" lon="9.48261">
        <ele>524</ele>
        <time>2011-04-16T00:32:12Z</time>
        <course>311.602028665908</course>
        <speed>8.32022902518598</speed>
      </trkpt>
      <trkpt lat="47.7596" lon="9.48191">
        <ele>523</ele>
        <time>2011-04-16T00:32:21Z</time>
        <course>304.589408762862</course>
        <speed>8.31891730375825</speed>
      </trkpt>
      <trkpt lat="47.76047" lon="9.48034">
        <ele>522</ele>
        <time>2011-04-16T00:32:39Z</time>
        <course>272.971100092689</course>
        <speed>5.37084067980722</speed>
      </trkpt>
      <trkpt lat="47.76057" lon="9.47791">
        <ele>527</ele>
        <time>2011-04-16T00:33:13Z</time>
        <course>255.914456838492</course>
        <speed>5.74116043110326</speed>
      </trkpt>
      <trkpt lat="47.76037" lon="9.47692">
        <ele>528</ele>
        <time>2011-04-16T00:33:27Z</time>
        <course>268.113578445037</course>
        <speed>5.73878781367858</speed>
      </trkpt>
      <trkpt lat="47.76035" lon="9.47617">
        <ele>530</ele>
        <time>2011-04-16T00:33:36Z</time>
        <course>254.932453396758</course>
        <speed>8.31972450405759</speed>
      </trkpt>
      <trkpt lat="47.76022" lon="9.47557">
        <ele>530</ele>
        <time>2011-04-16T00:33:42Z</time>
        <course>269.266340112878</course>
        <speed>8.32033958698892</speed>
      </trkpt>
      <trkpt lat="47.76021" lon="9.47462">
        <ele>530</ele>
        <time>2011-04-16T00:33:51Z</time>
        <course>254.229007416341</course>
        <speed>8.32015981018481</speed>
      </trkpt>
      <trkpt lat="47.76011" lon="9.47418">
        <ele>529</ele>
        <time>2011-04-16T00:33:55Z</time>
        <course>234.393904028309</course>
        <speed>8.31658234736352</speed>
      </trkpt>
      <trkpt lat="47.75977" lon="9.47359">
        <ele>528</ele>
        <time>2011-04-16T00:34:02Z</time>
        <course>244.373432924014</course>
        <speed>8.32055104016634</speed>
      </trkpt>
      <trkpt lat="47.75914" lon="9.47196">
        <ele>525</ele>
        <time>2011-04-16T00:34:19Z</time>
        <course>256.691393567164</course>
        <speed>8.3169743043231</speed>
      </trkpt>
      <trkpt lat="47.75867" lon="9.4695">
        <ele>518</ele>
        <time>2011-04-16T00:34:42Z</time>
        <course>265.958616739402</course>
        <speed>8.32123645638409</speed>
      </trkpt>
      <trkpt lat="47.75861" lon="9.46845">
        <ele>517</ele>
        <time>2011-04-16T00:34:51Z</time>
        <course>286.267198479732</course>
        <speed>8.31973076657448</speed>
      </trkpt>
      <trkpt lat="47.75884" lon="9.46747">
        <ele>517</ele>
        <time>2011-04-16T00:35:00Z</time>
        <course>253.405320295048</course>
        <speed>8.33177698957704</speed>
      </trkpt>
      <trkpt lat="47.75878" lon="9.46722">
        <ele>516</ele>
        <time>2011-04-16T00:35:03Z</time>
        <course>224.654311648438</course>
        <speed>8.31470735278491</speed>
      </trkpt>
      <trkpt lat="47.75825" lon="9.46657">
        <ele>512</ele>
        <time>2011-04-16T00:35:12Z</time>
        <course>248.16373135941</course>
        <speed>8.31852245803131</speed>
      </trkpt>
      <trkpt lat="47.7576" lon="9.46456">
        <ele>505</ele>
        <time>2011-04-16T00:35:32Z</time>
        <course>192.502386036844</course>
        <speed>8.31668985941679</speed>
      </trkpt>
      <trkpt lat="47.7568" lon="9.46434">
        <ele>492</ele>
        <time>2011-04-16T00:35:43Z</time>
        <course>226.690014737865</course>
        <speed>8.3163259881035</speed>
      </trkpt>
      <trkpt lat="47.75626" lon="9.46363">
        <ele>481</ele>
        <time>2011-04-16T00:35:52Z</time>
        <course>203.481531811241</course>
        <speed>8.32681865370686</speed>
      </trkpt>
      <trkpt lat="47.756" lon="9.46349">
        <ele>480</ele>
        <time>2011-04-16T00:35:56Z</time>
        <course>157.232498952742</course>
        <speed>8.31317542296074</speed>
      </trkpt>
      <trkpt lat="47.7555" lon="9.46375">
        <ele>480</ele>
        <time>2011-04-16T00:36:03Z</time>
        <course>245.747789021767</course>
        <speed>8.34166269557792</speed>
      </trkpt>
      <trkpt lat="47.75546" lon="9.46364">
        <ele>480</ele>
        <time>2011-04-16T00:36:04Z</time>
        <course>322.268654793572</course>
        <speed>8.31731621879408</speed>
      </trkpt>
      <trkpt lat="47.75645" lon="9.46269">
        <ele>479</ele>
        <time>2011-04-16T00:36:20Z</time>
        <course>352.648379233531</course>
        <speed>8.31555017244747</speed>
      </trkpt>
      <trkpt lat="47.7567" lon="9.46265">
        <ele>479</ele>
        <time>2011-04-16T00:36:23Z</time>
        <course>326.840133695405</course>
        <speed>8.31717489583807</speed>
      </trkpt>
      <trkpt lat="47.75744" lon="9.46205">
        <ele>479</ele>
        <time>2011-04-16T00:36:35Z</time>
        <course>309.243381277748</course>
        <speed>8.31797106492059</speed>
      </trkpt>
      <trkpt lat="47.75794" lon="9.46129">
        <ele>479</ele>
        <time>2011-04-16T00:36:44Z</time>
        <course>11.8648775006493</course>
        <speed>8.31655201384307</speed>
      </trkpt>
      <trkpt lat="47.7584" lon="9.46141">
        <ele>479</ele>
        <time>2011-04-16T00:36:51Z</time>
        <course>11.8569807945586</course>
        <speed>4.70065797379832</speed>
      </trkpt>
      <trkpt lat="47.75932" lon="9.46165">
        <ele>483</ele>
        <time>2011-04-16T00:37:13Z</time>
        <course>357.919454785422</course>
        <speed>3.75091809828927</speed>
      </trkpt>
      <trkpt lat="47.76109" lon="9.46157">
        <ele>495</ele>
        <time>2011-04-16T00:38:05Z</time>
        <course>17.6008875298018</course>
        <speed>5.9252335948459</speed>
      </trkpt>
      <trkpt lat="47.76324" lon="9.46242">
        <ele>500</ele>
        <time>2011-04-16T00:38:47Z</time>
        <course>22.6421310674883</course>
        <speed>8.31304075287427</speed>
      </trkpt>
      <trkpt lat="47.76374" lon="9.46268">
        <ele>500</ele>
        <time>2011-04-16T00:38:54Z</time>
        <course>47.7194036443824</course>
        <speed>8.32001845712972</speed>
      </trkpt>
      <trkpt lat="47.76484" lon="9.46419">
        <ele>500</ele>
        <time>2011-04-16T00:39:14Z</time>
        <course>75.8462643581911</course>
        <speed>8.31754340454995</speed>
      </trkpt>
      <trkpt lat="47.76506" lon="9.46528">
        <ele>500</ele>
        <time>2011-04-16T00:39:24Z</time>
        <course>93.3788562445405</course>
        <speed>8.31989080408204</speed>
      </trkpt>
      <trkpt lat="47.765" lon="9.46654">
        <ele>500</ele>
        <time>2011-04-16T00:39:35Z</time>
        <course>81.9383148303753</course>
        <speed>7.18903144849395</speed>
      </trkpt>
      <trkpt lat="47.76519" lon="9.46822">
        <ele>501</ele>
        <time>2011-04-16T00:39:53Z</time>
        <course>94.5220105037688</course>
        <speed>8.31694829304416</speed>
      </trkpt>
      <trkpt lat="47.76501" lon="9.47103">
        <ele>501</ele>
        <time>2011-04-16T00:40:18Z</time>
        <course>95.0834622543401</course>
        <speed>8.31283639546513</speed>
      </trkpt>
      <trkpt lat="47.76497" lon="9.47159">
        <ele>501</ele>
        <time>2011-04-16T00:40:24Z</time>
        <course>95.2372004396554</course>
        <speed>8.31800064565227</speed>
      </trkpt>
      <trkpt lat="47.76486" lon="9.47308">
        <ele>501</ele>
        <time>2011-04-16T00:40:37Z</time>
        <course>77.0615047089623</course>
        <speed>7.12159810612514</speed>
      </trkpt>
      <trkpt lat="47.76502" lon="9.47395">
        <ele>501</ele>
        <time>2011-04-16T00:40:46Z</time>
        <course>101.139080167656</course>
        <speed>7.11961797220439</speed>
      </trkpt>
      <trkpt lat="47.76467" lon="9.47616">
        <ele>503</ele>
        <time>2011-04-16T00:41:10Z</time>
        <course>109.045162501734</course>
        <speed>5.86035973634539</speed>
      </trkpt>
      <trkpt lat="47.76449" lon="9.47681">
        <ele>504</ele>
        <time>2011-04-16T00:41:19Z</time>
        <course>89.9888705843064</course>
        <speed>5.8635491720232</speed>
      </trkpt>
      <trkpt lat="47.76449" lon="9.47746">
        <ele>505</ele>
        <time>2011-04-16T00:41:27Z</time>
        <course>275.283345791952</course>
        <speed>5.8638963808955</speed>
      </trkpt>
      <trkpt lat="47.76451" lon="9.47719">
        <ele>505</ele>
        <time>2011-04-16T00:41:31Z</time>
        <course>301.539554543026</course>
        <speed>5.86245345621741</speed>
      </trkpt>
      <trkpt lat="47.76481" lon="9.47658">
        <ele>506</ele>
        <time>2011-04-16T00:41:41Z</time>
        <course>287.754005776804</course>
        <speed>5.86030298252233</speed>
      </trkpt>
      <trkpt lat="47.76546" lon="9.47404">
        <ele>511</ele>
        <time>2011-04-16T00:42:15Z</time>
        <course>280.895571029375</course>
        <speed>5.37899585359987</speed>
      </trkpt>
      <trkpt lat="47.76568" lon="9.47261">
        <ele>514</ele>
        <time>2011-04-16T00:42:36Z</time>
        <course>287.097604782202</course>
        <speed>8.31672175239277</speed>
      </trkpt>
      <trkpt lat="47.76599" lon="9.47135">
        <ele>514</ele>
        <time>2011-04-16T00:42:48Z</time>
        <course>75.1239749113109</course>
        <speed>3.02938141317281</speed>
      </trkpt>
      <trkpt lat="47.7663" lon="9.47281">
        <ele>524</ele>
        <time>2011-04-16T00:43:25Z</time>
        <course>94.9130765311419</course>
        <speed>8.31061896896321</speed>
      </trkpt>
      <trkpt lat="47.76626" lon="9.47339">
        <ele>523</ele>
        <time>2011-04-16T00:43:31Z</time>
        <course>110.361072452484</course>
        <speed>8.31926971128171</speed>
      </trkpt>
      <trkpt lat="47.7659" lon="9.4746">
        <ele>523</ele>
        <time>2011-04-16T00:43:43Z</time>
        <course>99.1304879449361</course>
        <speed>8.31635909235881</speed>
      </trkpt>
      <trkpt lat="47.76574" lon="9.47584">
        <ele>520</ele>
        <time>2011-04-16T00:43:54Z</time>
        <course>114.408451178765</course>
        <speed>8.32182452534861</speed>
      </trkpt>
      <trkpt lat="47.76558" lon="9.47628">
        <ele>520</ele>
        <time>2011-04-16T00:43:58Z</time>
        <course>91.450923750125</course>
        <speed>8.32169853908371</speed>
      </trkpt>
      <trkpt lat="47.76557" lon="9.47677">
        <ele>519</ele>
        <time>2011-04-16T00:44:03Z</time>
        <course>108.174589814904</course>
        <speed>8.31281800676185</speed>
      </trkpt>
      <trkpt lat="47.76542" lon="9.47734">
        <ele>518</ele>
        <time>2011-04-16T00:44:08Z</time>
        <course>81.477244710554</course>
        <speed>8.31931773491306</speed>
      </trkpt>
      <trkpt lat="47.76545" lon="9.47759">
        <ele>517</ele>
        <time>2011-04-16T00:44:11Z</time>
        <course>101.832559278858</course>
        <speed>8.31757426202199</speed>
      </trkpt>
      <trkpt lat="47.76526" lon="9.47872">
        <ele>516</ele>
        <time>2011-04-16T00:44:21Z</time>
        <course>71.9621204584455</course>
        <speed>8.30065082584271</speed>
      </trkpt>
      <trkpt lat="47.76532" lon="9.47895">
        <ele>515</ele>
        <time>2011-04-16T00:44:23Z</time>
        <course>103.088424429143</course>
        <speed>8.31486376739618</speed>
      </trkpt>
      <trkpt lat="47.76521" lon="9.47954">
        <ele>515</ele>
        <time>2011-04-16T00:44:29Z</time>
        <course>137.240047273413</course>
        <speed>8.30959982683701</speed>
      </trkpt>
      <trkpt lat="47.76508" lon="9.47969">
        <ele>514</ele>
        <time>2011-04-16T00:44:31Z</time>
        <course>110.83448624285</course>
        <speed>8.31717419676618</speed>
      </trkpt>
      <trkpt lat="47.76479" lon="9.48064">
        <ele>514</ele>
        <time>2011-04-16T00:44:40Z</time>
        <course>54.7999789228981</course>
        <speed>2.37769715301522</speed>
      </trkpt>
      <trkpt lat="47.76505" lon="9.4811">
        <ele>519</ele>
        <time>2011-04-16T00:44:59Z</time>
        <course>24.2624954437232</course>
        <speed>2.37892283814167</speed>
      </trkpt>
      <trkpt lat="47.76521" lon="9.48119">
        <ele>521</ele>
        <time>2011-04-16T00:45:07Z</time>
        <course>353.977787125984</course>
        <speed>2.3782195685093</speed>
      </trkpt>
      <trkpt lat="47.7665" lon="9.48102">
        <ele>540</ele>
        <time>2011-04-16T00:46:08Z</time>
        <course>24.575363010372</course>
        <speed>5.22081106758385</speed>
      </trkpt>
      <trkpt lat="47.76685" lon="9.48122">
        <ele>541</ele>
        <time>2011-04-16T00:46:16Z</time>
        <course>6.03155061138571</course>
        <speed>5.21846508091735</speed>
      </trkpt>
      <trkpt lat="47.76738" lon="9.48129">
        <ele>543</ele>
        <time>2011-04-16T00:46:27Z</time>
        <course>51.8078695480175</course>
        <speed>7.69687830333239</speed>
      </trkpt>
      <trkpt lat="47.76777" lon="9.48191">
        <ele>543</ele>
        <time>2011-04-16T00:46:35Z</time>
        <course>76.8350411011719</course>
        <speed>7.69533463069645</speed>
      </trkpt>
      <trkpt lat="47.76821" lon="9.48427">
        <ele>544</ele>
        <time>2011-04-16T00:46:59Z</time>
        <course>64.7738139717538</course>
        <speed>5.02563644197013</speed>
      </trkpt>
      <trkpt lat="47.76856" lon="9.4852">
        <ele>546</ele>
        <time>2011-04-16T00:47:15Z</time>
        <course>52.5829543905634</course>
        <speed>5.02618027684413</speed>
      </trkpt>
      <trkpt lat="47.769" lon="9.48592">
        <ele>549</ele>
        <time>2011-04-16T00:47:29Z</time>
        <course>51.7224408820418</course>
        <speed>4.18681303661196</speed>
      </trkpt>
      <trkpt lat="47.76946" lon="9.48665">
        <ele>552</ele>
        <time>2011-04-16T00:47:47Z</time>
        <course>35.3657992167394</course>
        <speed>4.18675777988585</speed>
      </trkpt>
      <trkpt lat="47.76982" lon="9.48697">
        <ele>555</ele>
        <time>2011-04-16T00:47:58Z</time>
        <course>48.3360223781642</course>
        <speed>4.89989354309074</speed>
      </trkpt>
      <trkpt lat="47.77031" lon="9.48766">
        <ele>557</ele>
        <time>2011-04-16T00:48:14Z</time>
        <course>335.162198459845</course>
        <speed>4.89906268726677</speed>
      </trkpt>
      <trkpt lat="47.77112" lon="9.48719">
        <ele>561</ele>
        <time>2011-04-16T00:48:33Z</time>
        <course>310.509081333299</course>
        <speed>3.92558969218021</speed>
      </trkpt>
      <trkpt lat="47.77159" lon="9.4865">
        <ele>565</ele>
        <time>2011-04-16T00:48:52Z</time>
        <course>351.950598916481</course>
        <speed>3.9265678144695</speed>
      </trkpt>
      <trkpt lat="47.77221" lon="9.48639">
        <ele>569</ele>
        <time>2011-04-16T00:49:10Z</time>
        <course>1.72150881194605</course>
        <speed>4.1255277956626</speed>
      </trkpt>
      <trkpt lat="47.77327" lon="9.48643">
        <ele>575</ele>
        <time>2011-04-16T00:49:38Z</time>
        <course>348.641188696787</course>
        <speed>6.1881073033098</speed>
      </trkpt>
      <trkpt lat="47.7743" lon="9.48617">
        <ele>577</ele>
        <time>2011-04-16T00:49:57Z</time>
        <course>141.48262507432</course>
        <speed>7.76130933740434</speed>
      </trkpt>
      <trkpt lat="47.77418" lon="9.48629">
        <ele>577</ele>
        <time>2011-04-16T00:49:59Z</time>
        <course>352.305969439887</course>
        <speed>7.75862153934108</speed>
      </trkpt>
      <trkpt lat="47.77471" lon="9.4862">
        <ele>577</ele>
        <time>2011-04-16T00:50:07Z</time>
        <course>5.83199571116423</course>
        <speed>7.75662283041505</speed>
      </trkpt>
      <trkpt lat="47.77898" lon="9.48675">
        <ele>579</ele>
        <time>2011-04-16T00:51:08Z</time>
        <course>236.5272327002</course>
        <speed>8.31956861976337</speed>
      </trkpt>
      <trkpt lat="47.77804" lon="9.48496">
        <ele>579</ele>
        <time>2011-04-16T00:51:28Z</time>
        <course>49.2274249046911</course>
        <speed>8.33240607602787</speed>
      </trkpt>
      <trkpt lat="47.77817" lon="9.48515">
        <ele>578</ele>
        <time>2011-04-16T00:51:31Z</time>
        <course>235.845057314419</course>
        <speed>8.32067761350428</speed>
      </trkpt>
      <trkpt lat="47.77803" lon="9.48489">
        <ele>578</ele>
        <time>2011-04-16T00:51:34Z</time>
        <course>268.730466656597</course>
        <speed>8.3164481204677</speed>
      </trkpt>
      <trkpt lat="47.77801" lon="9.48377">
        <ele>576</ele>
        <time>2011-04-16T00:51:44Z</time>
        <course>280.871613193919</course>
        <speed>8.31624748208221</speed>
      </trkpt>
      <trkpt lat="47.77815" lon="9.48285">
        <ele>575</ele>
        <time>2011-04-16T00:51:52Z</time>
        <course>266.50065578227</course>
        <speed>8.31905068456474</speed>
      </trkpt>
      <trkpt lat="47.77805" lon="9.48081">
        <ele>563</ele>
        <time>2011-04-16T00:52:11Z</time>
        <course>260.15887398459</course>
        <speed>8.31730220330947</speed>
      </trkpt>
      <trkpt lat="47.7778" lon="9.479">
        <ele>557</ele>
        <time>2011-04-16T00:52:27Z</time>
        <course>250.896170388625</course>
        <speed>8.31718212720137</speed>
      </trkpt>
      <trkpt lat="47.77692" lon="9.47581">
        <ele>555</ele>
        <time>2011-04-16T00:52:58Z</time>
        <course>258.862283142443</course>
        <speed>8.31977713512683</speed>
      </trkpt>
      <trkpt lat="47.77671" lon="9.47447">
        <ele>548</ele>
        <time>2011-04-16T00:53:11Z</time>
        <course>276.223037901232</course>
        <speed>8.31989564933111</speed>
      </trkpt>
      <trkpt lat="47.77678" lon="9.47366">
        <ele>544</ele>
        <time>2011-04-16T00:53:18Z</time>
        <course>316.382203032202</course>
        <speed>8.31553115650519</speed>
      </trkpt>
      <trkpt lat="47.77708" lon="9.4733">
        <ele>541</ele>
        <time>2011-04-16T00:53:23Z</time>
        <course>299.183044570924</course>
        <speed>8.32100473802842</speed>
      </trkpt>
      <trkpt lat="47.77747" lon="9.47242">
        <ele>537</ele>
        <time>2011-04-16T00:53:33Z</time>
        <course>275.767286855351</course>
        <speed>8.31871512387608</speed>
      </trkpt>
      <trkpt lat="47.77753" lon="9.47167">
        <ele>535</ele>
        <time>2011-04-16T00:53:39Z</time>
        <course>259.44398702463</course>
        <speed>8.31386338107717</speed>
      </trkpt>
      <trkpt lat="47.77741" lon="9.47086">
        <ele>534</ele>
        <time>2011-04-16T00:53:47Z</time>
        <course>268.331423103614</course>
        <speed>5.27237681977876</speed>
      </trkpt>
      <trkpt lat="47.77738" lon="9.46958">
        <ele>536</ele>
        <time>2011-04-16T00:54:05Z</time>
        <course>257.11173443638</course>
        <speed>5.27229938608884</speed>
      </trkpt>
      <trkpt lat="47.77728" lon="9.46903">
        <ele>538</ele>
        <time>2011-04-16T00:54:13Z</time>
        <course>193.937243862355</course>
        <speed>5.4229908872801</speed>
      </trkpt>
      <trkpt lat="47.77712" lon="9.46898">
        <ele>538</ele>
        <time>2011-04-16T00:54:16Z</time>
        <course>254.694661632833</course>
        <speed>5.42085173320075</speed>
      </trkpt>
      <trkpt lat="47.77707" lon="9.46875">
        <ele>538</ele>
        <time>2011-04-16T00:54:20Z</time>
        <course>222.342224797862</course>
        <speed>5.4207611506486</speed>
      </trkpt>
      <trkpt lat="47.77673" lon="9.46836">
        <ele>540</ele>
        <time>2011-04-16T00:54:29Z</time>
        <course>274.501538031784</course>
        <speed>5.42966651064078</speed>
      </trkpt>
      <trkpt lat="47.77674" lon="9.4682">
        <ele>540</ele>
        <time>2011-04-16T00:54:31Z</time>
        <course>1.26370317359974</course>
        <speed>5.42143214528142</speed>
      </trkpt>
      <trkpt lat="47.7771" lon="9.46821">
        <ele>541</ele>
        <time>2011-04-16T00:54:38Z</time>
        <course>312.203172898774</course>
        <speed>5.41786026092385</speed>
      </trkpt>
      <trkpt lat="47.77728" lon="9.46796">
        <ele>542</ele>
        <time>2011-04-16T00:54:43Z</time>
        <course>26.9336567948468</course>
        <speed>5.41941963495847</speed>
      </trkpt>
      <trkpt lat="47.77753" lon="9.46812">
        <ele>543</ele>
        <time>2011-04-16T00:54:49Z</time>
        <course>359.254723062889</course>
        <speed>5.41865012617187</speed>
      </trkpt>
      <trkpt lat="47.77814" lon="9.46811">
        <ele>545</ele>
        <time>2011-04-16T00:55:01Z</time>
        <course>14.9589280732025</course>
        <speed>4.2609119647336</speed>
      </trkpt>
      <trkpt lat="47.77906" lon="9.46842">
        <ele>550</ele>
        <time>2011-04-16T00:55:26Z</time>
        <course>352.814954978191</course>
        <speed>4.57408424920902</speed>
      </trkpt>
      <trkpt lat="47.77994" lon="9.46828">
        <ele>554</ele>
        <time>2011-04-16T00:55:47Z</time>
        <course>329.724495937897</course>
        <speed>4.57459019070157</speed>
      </trkpt>
      <trkpt lat="47.78013" lon="9.46814">
        <ele>555</ele>
        <time>2011-04-16T00:55:52Z</time>
        <course>287.155023884055</course>
        <speed>5.2504679148387</speed>
      </trkpt>
      <trkpt lat="47.78024" lon="9.46769">
        <ele>556</ele>
        <time>2011-04-16T00:55:59Z</time>
        <course>299.208937908358</course>
        <speed>5.25085297481279</speed>
      </trkpt>
      <trkpt lat="47.78074" lon="9.46656">
        <ele>559</ele>
        <time>2011-04-16T00:56:19Z</time>
        <course>317.520855984977</course>
        <speed>4.49913886905093</speed>
      </trkpt>
      <trkpt lat="47.78144" lon="9.46575">
        <ele>563</ele>
        <time>2011-04-16T00:56:40Z</time>
        <course>295.602015155659</course>
        <speed>4.49872205171303</speed>
      </trkpt>
      <trkpt lat="47.78194" lon="9.46443">
        <ele>568</ele>
        <time>2011-04-16T00:57:06Z</time>
        <course>274.908113964544</course>
        <speed>6.56936048517228</speed>
      </trkpt>
      <trkpt lat="47.78198" lon="9.46384">
        <ele>568</ele>
        <time>2011-04-16T00:57:12Z</time>
        <course>285.825516485753</course>
        <speed>6.56671566112423</speed>
      </trkpt>
      <trkpt lat="47.78228" lon="9.4625">
        <ele>570</ele>
        <time>2011-04-16T00:57:28Z</time>
        <course>256.150291501794</course>
        <speed>8.3232591928643</speed>
      </trkpt>
      <trkpt lat="47.7822" lon="9.46209">
        <ele>569</ele>
        <time>2011-04-16T00:57:32Z</time>
        <course>222.958020468116</course>
        <speed>8.32265530242807</speed>
      </trkpt>
      <trkpt lat="47.78169" lon="9.46149">
        <ele>568</ele>
        <time>2011-04-16T00:57:41Z</time>
        <course>236.232770481765</course>
        <speed>6.74032261476127</speed>
      </trkpt>
      <trkpt lat="47.78133" lon="9.46081">
        <ele>568</ele>
        <time>2011-04-16T00:57:50Z</time>
        <course>253.409715838432</course>
        <speed>6.73872226289823</speed>
      </trkpt>
      <trkpt lat="47.78076" lon="9.4584">
        <ele>571</ele>
        <time>2011-04-16T00:58:19Z</time>
        <course>277.292892407247</course>
        <speed>7.15695925726098</speed>
      </trkpt>
      <trkpt lat="47.78085" lon="9.45751">
        <ele>571</ele>
        <time>2011-04-16T00:58:28Z</time>
        <course>245.347907633959</course>
        <speed>7.1564400189344</speed>
      </trkpt>
      <trkpt lat="47.78061" lon="9.45685">
        <ele>572</ele>
        <time>2011-04-16T00:58:36Z</time>
        <course>221.986043147214</course>
        <speed>8.32177451683796</speed>
      </trkpt>
      <trkpt lat="47.78002" lon="9.45618">
        <ele>567</ele>
        <time>2011-04-16T00:58:46Z</time>
        <course>249.090619655019</course>
        <speed>8.31719469927432</speed>
      </trkpt>
      <trkpt lat="47.77972" lon="9.45519">
        <ele>564</ele>
        <time>2011-04-16T00:58:56Z</time>
        <course>216.494574120969</course>
        <speed>8.30169814180255</speed>
      </trkpt>
      <trkpt lat="47.77957" lon="9.45505">
        <ele>563</ele>
        <time>2011-04-16T00:58:58Z</time>
        <course>174.669736672795</course>
        <speed>8.32023773431048</speed>
      </trkpt>
      <trkpt lat="47.77889" lon="9.45513">
        <ele>560</ele>
        <time>2011-04-16T00:59:07Z</time>
        <course>139.239477497397</course>
        <speed>8.31966927713262</speed>
      </trkpt>
      <trkpt lat="47.77784" lon="9.45627">
        <ele>555</ele>
        <time>2011-04-16T00:59:25Z</time>
        <course>156.501306065969</course>
        <speed>8.31946684177412</speed>
      </trkpt>
      <trkpt lat="47.77689" lon="9.45679">
        <ele>550</ele>
        <time>2011-04-16T00:59:38Z</time>
        <course>168.600011276764</course>
        <speed>8.31772710448303</speed>
      </trkpt>
      <trkpt lat="47.77622" lon="9.45696">
        <ele>549</ele>
        <time>2011-04-16T00:59:47Z</time>
        <course>159.594714434122</course>
        <speed>8.31970603662022</speed>
      </trkpt>
      <trkpt lat="47.77468" lon="9.45768">
        <ele>547</ele>
        <time>2011-04-16T01:00:09Z</time>
        <course>169.685048561569</course>
        <speed>8.31885579642298</speed>
      </trkpt>
      <trkpt lat="47.77363" lon="9.45792">
        <ele>539</ele>
        <time>2011-04-16T01:00:23Z</time>
        <course>169.763520049879</course>
        <speed>7.81292368802051</speed>
      </trkpt>
      <trkpt lat="47.77288" lon="9.45809">
        <ele>539</ele>
        <time>2011-04-16T01:00:34Z</time>
        <course>173.657469081988</course>
        <speed>7.81358218371547</speed>
      </trkpt>
      <trkpt lat="47.77087" lon="9.45837">
        <ele>540</ele>
        <time>2011-04-16T01:01:02Z</time>
        <course>187.185739696525</course>
        <speed>8.31949494328046</speed>
      </trkpt>
      <trkpt lat="47.76992" lon="9.45822">
        <ele>540</ele>
        <time>2011-04-16T01:01:15Z</time>
        <course>197.962602662389</course>
        <speed>8.32182447351395</speed>
      </trkpt>
      <trkpt lat="47.76923" lon="9.45794">
        <ele>539</ele>
        <time>2011-04-16T01:01:25Z</time>
        <course>196.972526509485</course>
        <speed>8.3191255962782</speed>
      </trkpt>
      <trkpt lat="47.76771" lon="9.45736">
        <ele>537</ele>
        <time>2011-04-16T01:01:46Z</time>
        <course>192.380703602028</course>
        <speed>8.32003043708477</speed>
      </trkpt>
      <trkpt lat="47.76647" lon="9.45702">
        <ele>534</ele>
        <time>2011-04-16T01:02:02Z</time>
        <course>180</course>
        <speed>8.31830508469019</speed>
      </trkpt>
      <trkpt lat="47.76594" lon="9.45702">
        <ele>533</ele>
        <time>2011-04-16T01:02:10Z</time>
        <course>94.7481283986181</course>
        <speed>8.3242530949199</speed>
      </trkpt>
      <trkpt lat="47.7659" lon="9.45762">
        <ele>532</ele>
        <time>2011-04-16T01:02:15Z</time>
        <course>91.2523859502314</course>
        <speed>8.31910128055364</speed>
      </trkpt>
      <trkpt lat="47.76583" lon="9.46142">
        <ele>530</ele>
        <time>2011-04-16T01:02:49Z</time>
        <course>45.6212398406747</course>
        <speed>8.32139588752879</speed>
      </trkpt>
      <trkpt lat="47.7663" lon="9.46202">
        <ele>525</ele>
        <time>2011-04-16T01:02:57Z</time>
        <course>82.3731182029614</course>
        <speed>8.30479108053088</speed>
      </trkpt>
      <trkpt lat="47.76633" lon="9.4623">
        <ele>523</ele>
        <time>2011-04-16T01:03:00Z</time>
        <course>49.3240912618733</course>
        <speed>8.31841687542171</speed>
      </trkpt>
      <trkpt lat="47.76699" lon="9.46326">
        <ele>517</ele>
        <time>2011-04-16T01:03:12Z</time>
        <course>11.5747344684359</course>
        <speed>7.85543491394504</speed>
      </trkpt>
      <trkpt lat="47.76781" lon="9.46347">
        <ele>517</ele>
        <time>2011-04-16T01:03:24Z</time>
        <course>173.910636193667</course>
        <speed>7.85671399901436</speed>
      </trkpt>
      <trkpt lat="47.76721" lon="9.46355">
        <ele>517</ele>
        <time>2011-04-16T01:03:33Z</time>
        <course>221.91476329</course>
        <speed>7.85573947488366</speed>
      </trkpt>
      <trkpt lat="47.76655" lon="9.46281">
        <ele>517</ele>
        <time>2011-04-16T01:03:44Z</time>
        <course>218.682394745157</course>
        <speed>7.85015872748144</speed>
      </trkpt>
      <trkpt lat="47.76637" lon="9.46263">
        <ele>517</ele>
        <time>2011-04-16T01:03:47Z</time>
        <course>195.697544120357</course>
        <speed>7.85943217381164</speed>
      </trkpt>
      <trkpt lat="47.7658" lon="9.46243">
        <ele>518</ele>
        <time>2011-04-16T01:03:56Z</time>
        <course>198.156727038128</course>
        <speed>8.31817421681975</speed>
      </trkpt>
      <trkpt lat="47.7647" lon="9.46198">
        <ele>510</ele>
        <time>2011-04-16T01:04:11Z</time>
        <course>166.636324899953</course>
        <speed>8.31294992242222</speed>
      </trkpt>
      <trkpt lat="47.76443" lon="9.46206">
        <ele>508</ele>
        <time>2011-04-16T01:04:15Z</time>
        <course>82.2207077037371</course>
        <speed>8.3216474611674</speed>
      </trkpt>
      <trkpt lat="47.7645" lon="9.4627">
        <ele>505</ele>
        <time>2011-04-16T01:04:20Z</time>
        <course>95.207627078031</course>
        <speed>8.32564157923558</speed>
      </trkpt>
      <trkpt lat="47.76447" lon="9.46311">
        <ele>503</ele>
        <time>2011-04-16T01:04:24Z</time>
        <course>198.971823328846</course>
        <speed>8.31650360959757</speed>
      </trkpt>
      <trkpt lat="47.76384" lon="9.46284">
        <ele>500</ele>
        <time>2011-04-16T01:04:33Z</time>
        <course>208.593455494498</course>
        <speed>8.31586023841016</speed>
      </trkpt>
      <trkpt lat="47.76275" lon="9.4621">
        <ele>499</ele>
        <time>2011-04-16T01:04:49Z</time>
        <course>193.100639060398</course>
        <speed>8.31740155379968</speed>
      </trkpt>
      <trkpt lat="47.76085" lon="9.46155">
        <ele>494</ele>
        <time>2011-04-16T01:05:15Z</time>
        <course>172.177756384544</course>
        <speed>8.3177056562513</speed>
      </trkpt>
      <trkpt lat="47.75962" lon="9.46176">
        <ele>484</ele>
        <time>2011-04-16T01:05:31Z</time>
        <course>192.269091373612</course>
        <speed>8.31828760500932</speed>
      </trkpt>
      <trkpt lat="47.75799" lon="9.46132">
        <ele>477</ele>
        <time>2011-04-16T01:05:53Z</time>
        <course>163.188381224337</course>
        <speed>8.33430349916605</speed>
      </trkpt>
      <trkpt lat="47.75783" lon="9.46138">
        <ele>476</ele>
        <time>2011-04-16T01:05:56Z</time>
        <course>128.876000857677</course>
        <speed>8.32114582540585</speed>
      </trkpt>
      <trkpt lat="47.75731" lon="9.46218">
        <ele>476</ele>
        <time>2011-04-16T01:06:06Z</time>
        <course>149.962094965364</course>
        <speed>8.32005394907853</speed>
      </trkpt>
      <trkpt lat="47.75611" lon="9.46304">
        <ele>476</ele>
        <time>2011-04-16T01:06:23Z</time>
        <course>152.071898570675</course>
        <speed>7.13221604494904</speed>
      </trkpt>
      <trkpt lat="47.75512" lon="9.46369">
        <ele>477</ele>
        <time>2011-04-16T01:06:40Z</time>
        <course>129.148216384768</course>
        <speed>8.31798027264672</speed>
      </trkpt>
      <trkpt lat="47.7541" lon="9.46524">
        <ele>477</ele>
        <time>2011-04-16T01:07:00Z</time>
        <course>132.725704730302</course>
        <speed>8.31537599854337</speed>
      </trkpt>
      <trkpt lat="47.75354" lon="9.46599">
        <ele>476</ele>
        <time>2011-04-16T01:07:10Z</time>
        <course>146.532075055785</course>
        <speed>8.31751020174906</speed>
      </trkpt>
      <trkpt lat="47.7512" lon="9.4679">
        <ele>476</ele>
        <time>2011-04-16T01:07:45Z</time>
        <course>154.380609416343</course>
        <speed>8.31814124610138</speed>
      </trkpt>
      <trkpt lat="47.75022" lon="9.46848">
        <ele>475</ele>
        <time>2011-04-16T01:07:59Z</time>
        <course>173.900031896378</course>
        <speed>8.31828998579496</speed>
      </trkpt>
      <trkpt lat="47.74893" lon="9.46865">
        <ele>471</ele>
        <time>2011-04-16T01:08:17Z</time>
        <course>164.289566259147</course>
        <speed>8.31623871977459</speed>
      </trkpt>
      <trkpt lat="47.74818" lon="9.46891">
        <ele>470</ele>
        <time>2011-04-16T01:08:27Z</time>
        <course>148.574519580441</course>
        <speed>8.31787374785859</speed>
      </trkpt>
      <trkpt lat="47.74713" lon="9.4697">
        <ele>470</ele>
        <time>2011-04-16T01:08:43Z</time>
        <course>134.763026284746</course>
        <speed>8.31202286779624</speed>
      </trkpt>
      <trkpt lat="47.74684" lon="9.47006">
        <ele>470</ele>
        <time>2011-04-16T01:08:48Z</time>
        <course>139.572858552424</course>
        <speed>8.31774368866256</speed>
      </trkpt>
      <trkpt lat="47.74558" lon="9.47138">
        <ele>470</ele>
        <time>2011-04-16T01:09:08Z</time>
        <course>133.183424460106</course>
        <speed>8.31911618874493</speed>
      </trkpt>
      <trkpt lat="47.74474" lon="9.47248">
        <ele>470</ele>
        <time>2011-04-16T01:09:23Z</time>
        <course>121.933963171265</course>
        <speed>8.32236488096718</speed>
      </trkpt>
      <trkpt lat="47.74439" lon="9.47317">
        <ele>470</ele>
        <time>2011-04-16T01:09:31Z</time>
        <course>118.500320965103</course>
        <speed>8.32061355091652</speed>
      </trkpt>
      <trkpt lat="47.74397" lon="9.47412">
        <ele>470</ele>
        <time>2011-04-16T01:09:41Z</time>
        <course>11.2847018492847</course>
        <speed>3.93988880772019</speed>
      </trkpt>
      <trkpt lat="47.7445" lon="9.47425">
        <ele>473</ele>
        <time>2011-04-16T01:09:56Z</time>
        <course>65.896628192951</course>
        <speed>3.94083698311667</speed>
      </trkpt>
      <trkpt lat="47.74486" lon="9.47524">
        <ele>478</ele>
        <time>2011-04-16T01:10:18Z</time>
        <course>14.577866747475</course>
        <speed>6.15727918989935</speed>
      </trkpt>
      <trkpt lat="47.74586" lon="9.47556">
        <ele>480</ele>
        <time>2011-04-16T01:10:36Z</time>
        <course>4.42537782366975</course>
        <speed>7.04307263129807</speed>
      </trkpt>
      <trkpt lat="47.74607" lon="9.47558">
        <ele>480</ele>
        <time>2011-04-16T01:10:40Z</time>
        <course>306.043471657374</course>
        <speed>7.04781981879663</speed>
      </trkpt>
      <trkpt lat="47.74659" lon="9.4747">
        <ele>481</ele>
        <time>2011-04-16T01:10:52Z</time>
        <course>290.535119733506</course>
        <speed>6.35956425528772</speed>
      </trkpt>
      <trkpt lat="47.74707" lon="9.47312">
        <ele>483</ele>
        <time>2011-04-16T01:11:12Z</time>
        <course>306.492088690296</course>
        <speed>8.32014052268391</speed>
      </trkpt>
      <trkpt lat="47.74791" lon="9.47172">
        <ele>481</ele>
        <time>2011-04-16T01:11:29Z</time>
        <course>320.732226252524</course>
        <speed>8.32017358274728</speed>
      </trkpt>
      <trkpt lat="47.74908" lon="9.47054">
        <ele>480</ele>
        <time>2011-04-16T01:11:48Z</time>
        <course>335.271304694683</course>
        <speed>5.43584259356258</speed>
      </trkpt>
      <trkpt lat="47.75003" lon="9.47">
        <ele>483</ele>
        <time>2011-04-16T01:12:09Z</time>
        <course>335.087461871086</course>
        <speed>3.97808707279966</speed>
      </trkpt>
      <trkpt lat="47.75172" lon="9.46903">
        <ele>494</ele>
        <time>2011-04-16T01:13:00Z</time>
        <course>340.477350293693</course>
        <speed>6.73842897417994</speed>
      </trkpt>
      <trkpt lat="47.75245" lon="9.46871">
        <ele>494</ele>
        <time>2011-04-16T01:13:12Z</time>
        <course>341.290804524094</course>
        <speed>6.73723010500988</speed>
      </trkpt>
      <trkpt lat="47.75319" lon="9.4684">
        <ele>496</ele>
        <time>2011-04-16T01:13:25Z</time>
        <course>351.765114825638</course>
        <speed>3.9951103387983</speed>
      </trkpt>
      <trkpt lat="47.75386" lon="9.46828">
        <ele>500</ele>
        <time>2011-04-16T01:13:44Z</time>
        <course>18.4341162792894</course>
        <speed>3.99616869995468</speed>
      </trkpt>
      <trkpt lat="47.75449" lon="9.46854">
        <ele>504</ele>
        <time>2011-04-16T01:14:02Z</time>
        <course>44.0888041646413</course>
        <speed>4.25936626139655</speed>
      </trkpt>
      <trkpt lat="47.75499" lon="9.46914">
        <ele>507</ele>
        <time>2011-04-16T01:14:18Z</time>
        <course>23.1439134206751</course>
        <speed>4.25839229124335</speed>
      </trkpt>
      <trkpt lat="47.75616" lon="9.46976">
        <ele>514</ele>
        <time>2011-04-16T01:14:51Z</time>
        <course>341.962310215437</course>
        <speed>8.31585583589307</speed>
      </trkpt>
      <trkpt lat="47.75668" lon="9.46955">
        <ele>511</ele>
        <time>2011-04-16T01:14:58Z</time>
        <course>342.132468628014</course>
        <speed>8.32214868110236</speed>
      </trkpt>
      <trkpt lat="47.75743" lon="9.46925">
        <ele>509</ele>
        <time>2011-04-16T01:15:08Z</time>
        <course>346.53304807139</course>
        <speed>3.81853554361852</speed>
      </trkpt>
      <trkpt lat="47.75817" lon="9.46903">
        <ele>513</ele>
        <time>2011-04-16T01:15:30Z</time>
        <course>351.140767052623</course>
        <speed>3.81731525958378</speed>
      </trkpt>
      <trkpt lat="47.75848" lon="9.46897">
        <ele>516</ele>
        <time>2011-04-16T01:15:39Z</time>
        <course>84.3945015072683</course>
        <speed>4.71642406902163</speed>
      </trkpt>
      <trkpt lat="47.75851" lon="9.46935">
        <ele>517</ele>
        <time>2011-04-16T01:15:46Z</time>
        <course>75.1953073074267</course>
        <speed>4.71703150110617</speed>
      </trkpt>
      <trkpt lat="47.75907" lon="9.47199">
        <ele>525</ele>
        <time>2011-04-16T01:16:29Z</time>
        <course>61.9178458679961</course>
        <speed>5.69814883808525</speed>
      </trkpt>
      <trkpt lat="47.76012" lon="9.47444">
        <ele>530</ele>
        <time>2011-04-16T01:17:07Z</time>
        <course>91.9055814070979</course>
        <speed>8.31490541567799</speed>
      </trkpt>
      <trkpt lat="47.76009" lon="9.47555">
        <ele>529</ele>
        <time>2011-04-16T01:17:17Z</time>
        <course>84.2566702396586</course>
        <speed>8.31581364535113</speed>
      </trkpt>
      <trkpt lat="47.76021" lon="9.47704">
        <ele>529</ele>
        <time>2011-04-16T01:17:31Z</time>
        <course>73.5407210093599</course>
        <speed>8.31623074389012</speed>
      </trkpt>
      <trkpt lat="47.76049" lon="9.47822">
        <ele>526</ele>
        <time>2011-04-16T01:17:42Z</time>
        <course>94.8533975270258</course>
        <speed>8.31775560840085</speed>
      </trkpt>
      <trkpt lat="47.76034" lon="9.4804">
        <ele>522</ele>
        <time>2011-04-16T01:18:02Z</time>
        <course>127.209887813453</course>
        <speed>8.32019614605361</speed>
      </trkpt>
      <trkpt lat="47.75979" lon="9.4813">
        <ele>522</ele>
        <time>2011-04-16T01:18:13Z</time>
        <course>116.424440409185</course>
        <speed>8.31439173393933</speed>
      </trkpt>
      <trkpt lat="47.75957" lon="9.48185">
        <ele>522</ele>
        <time>2011-04-16T01:18:19Z</time>
        <course>136.801328535709</course>
        <speed>5.94605374277818</speed>
      </trkpt>
      <trkpt lat="47.75933" lon="9.48213">
        <ele>522</ele>
        <time>2011-04-16T01:18:24Z</time>
        <course>115.734465609684</course>
        <speed>5.94738141756144</speed>
      </trkpt>
      <trkpt lat="47.75858" lon="9.48406">
        <ele>526</ele>
        <time>2011-04-16T01:18:52Z</time>
        <course>92.3108174761371</course>
        <speed>8.31756423330201</speed>
      </trkpt>
      <trkpt lat="47.75854" lon="9.48528">
        <ele>524</ele>
        <time>2011-04-16T01:19:03Z</time>
        <course>84.8723243919014</course>
        <speed>8.31972015893798</speed>
      </trkpt>
      <trkpt lat="47.75866" lon="9.48695">
        <ele>522</ele>
        <time>2011-04-16T01:19:18Z</time>
        <course>113.566690309431</course>
        <speed>8.31645804618893</speed>
      </trkpt>
      <trkpt lat="47.75853" lon="9.48732">
        <ele>521</ele>
        <time>2011-04-16T01:19:22Z</time>
        <course>110.418981224112</course>
        <speed>8.322881958113</speed>
      </trkpt>
      <trkpt lat="47.75832" lon="9.48802">
        <ele>520</ele>
        <time>2011-04-16T01:19:29Z</time>
        <course>138.786338223554</course>
        <speed>8.31900196159009</speed>
      </trkpt>
      <trkpt lat="47.75786" lon="9.48852">
        <ele>520</ele>
        <time>2011-04-16T01:19:37Z</time>
        <course>87.0433645760316</course>
        <speed>8.31589634398577</speed>
      </trkpt>
      <trkpt lat="47.75791" lon="9.48973">
        <ele>520</ele>
        <time>2011-04-16T01:19:47Z</time>
        <course>72.0595046481071</course>
        <speed>8.31902606694563</speed>
      </trkpt>
      <trkpt lat="47.75822" lon="9.49092">
        <ele>520</ele>
        <time>2011-04-16T01:19:59Z</time>
        <course>83.0699128318742</course>
        <speed>8.31901597586122</speed>
      </trkpt>
      <trkpt lat="47.75869" lon="9.49578">
        <ele>520</ele>
        <time>2011-04-16T01:20:43Z</time>
        <course>97.6721878513276</course>
        <speed>8.31749807501448</speed>
      </trkpt>
      <trkpt lat="47.75859" lon="9.4967">
        <ele>520</ele>
        <time>2011-04-16T01:20:51Z</time>
        <course>118.462002281614</course>
        <speed>8.31560317079557</speed>
      </trkpt>
      <trkpt lat="47.75807" lon="9.49789">
        <ele>520</ele>
        <time>2011-04-16T01:21:04Z</time>
        <course>135.675455432351</course>
        <speed>8.31790093996599</speed>
      </trkpt>
      <trkpt lat="47.75602" lon="9.50037">
        <ele>520</ele>
        <time>2011-04-16T01:21:39Z</time>
        <course>125.124193545685</course>
        <speed>8.32046785783347</speed>
      </trkpt>
      <trkpt lat="47.75556" lon="9.50118">
        <ele>519</ele>
        <time>2011-04-16T01:21:49Z</time>
        <course>117.440539694991</course>
        <speed>8.31751878086621</speed>
      </trkpt>
      <trkpt lat="47.75496" lon="9.50261">
        <ele>518</ele>
        <time>2011-04-16T01:22:04Z</time>
        <course>109.34198814925</course>
        <speed>8.3186121317312</speed>
      </trkpt>
      <trkpt lat="47.75452" lon="9.50416">
        <ele>517</ele>
        <time>2011-04-16T01:22:19Z</time>
        <course>102.456770631482</course>
        <speed>8.31758038260129</speed>
      </trkpt>
      <trkpt lat="47.75395" lon="9.50734">
        <ele>517</ele>
        <time>2011-04-16T01:22:49Z</time>
        <course>114.648658506274</course>
        <speed>8.31793832080077</speed>
      </trkpt>
      <trkpt lat="47.75372" lon="9.50796">
        <ele>517</ele>
        <time>2011-04-16T01:22:55Z</time>
        <course>128.43092199303</course>
        <speed>8.31736774203559</speed>
      </trkpt>
      <trkpt lat="47.75338" lon="9.50849">
        <ele>517</ele>
        <time>2011-04-16T01:23:02Z</time>
        <course>140.546784909733</course>
        <speed>8.31441714729714</speed>
      </trkpt>
      <trkpt lat="47.75281" lon="9.50907">
        <ele>516</ele>
        <time>2011-04-16T01:23:11Z</time>
        <course>108.473724007118</course>
        <speed>8.32188443979126</speed>
      </trkpt>
      <trkpt lat="47.75271" lon="9.50944">
        <ele>516</ele>
        <time>2011-04-16T01:23:14Z</time>
        <course>1.36190310980299</course>
        <speed>6.10965010258387</speed>
      </trkpt>
      <trkpt lat="47.75339" lon="9.50946">
        <ele>517</ele>
        <time>2011-04-16T01:23:27Z</time>
        <course>28.1427842626517</course>
        <speed>6.11059897342866</speed>
      </trkpt>
      <trkpt lat="47.75413" lon="9.50995">
        <ele>519</ele>
        <time>2011-04-16T01:23:42Z</time>
        <course>51.5720830223259</course>
        <speed>7.11094588110282</speed>
      </trkpt>
      <trkpt lat="47.75486" lon="9.51109">
        <ele>520</ele>
        <time>2011-04-16T01:23:58Z</time>
        <course>28.7572808792899</course>
        <speed>8.3179758649658</speed>
      </trkpt>
      <trkpt lat="47.7574" lon="9.51282">
        <ele>519</ele>
        <time>2011-04-16T01:24:35Z</time>
        <course>33.3834133755312</course>
        <speed>7.88783435216091</speed>
      </trkpt>
      <trkpt lat="47.75817" lon="9.51345">
        <ele>519</ele>
        <time>2011-04-16T01:24:48Z</time>
        <course>15.1872935334687</course>
        <speed>7.88622780027224</speed>
      </trkpt>
      <trkpt lat="47.76051" lon="9.51424">
        <ele>520</ele>
        <time>2011-04-16T01:25:22Z</time>
        <course>55.5056565066205</course>
        <speed>8.31990023157846</speed>
      </trkpt>
      <trkpt lat="47.76147" lon="9.51598">
        <ele>520</ele>
        <time>2011-04-16T01:25:42Z</time>
        <course>72.4872792964794</course>
        <speed>8.32051821188902</speed>
      </trkpt>
      <trkpt lat="47.76188" lon="9.5176">
        <ele>519</ele>
        <time>2011-04-16T01:25:57Z</time>
        <course>57.0808064081557</course>
        <speed>8.31591163206465</speed>
      </trkpt>
      <trkpt lat="47.76241" lon="9.51862">
        <ele>518</ele>
        <time>2011-04-16T01:26:09Z</time>
        <course>69.6019621532787</course>
        <speed>8.3176573582367</speed>
      </trkpt>
      <trkpt lat="47.76275" lon="9.51976">
        <ele>518</ele>
        <time>2011-04-16T01:26:20Z</time>
        <course>61.4576750529575</course>
        <speed>7.46017237673639</speed>
      </trkpt>
      <trkpt lat="47.7636" lon="9.52171">
        <ele>519</ele>
        <time>2011-04-16T01:26:43Z</time>
        <course>77.222862704016</course>
        <speed>8.32428237149554</speed>
      </trkpt>
      <trkpt lat="47.76368" lon="9.52215">
        <ele>518</ele>
        <time>2011-04-16T01:26:48Z</time>
        <course>100.784675174437</course>
        <speed>8.3138096639842</speed>
      </trkpt>
      <trkpt lat="47.76353" lon="9.52313">
        <ele>518</ele>
        <time>2011-04-16T01:26:57Z</time>
        <course>83.3886982960237</course>
        <speed>8.32061690630859</speed>
      </trkpt>
      <trkpt lat="47.76368" lon="9.52475">
        <ele>518</ele>
        <time>2011-04-16T01:27:11Z</time>
        <course>99.0335793564937</course>
        <speed>8.31013536795792</speed>
      </trkpt>
      <trkpt lat="47.76362" lon="9.52522">
        <ele>517</ele>
        <time>2011-04-16T01:27:16Z</time>
        <course>119.29938396902</course>
        <speed>8.31583291252779</speed>
      </trkpt>
      <trkpt lat="47.76321" lon="9.52613">
        <ele>517</ele>
        <time>2011-04-16T01:27:25Z</time>
        <course>102.516979909443</course>
        <speed>8.31770362112305</speed>
      </trkpt>
      <trkpt lat="47.76263" lon="9.52937">
        <ele>516</ele>
        <time>2011-04-16T01:27:55Z</time>
        <course>111.633091081071</course>
        <speed>8.31542016208124</speed>
      </trkpt>
      <trkpt lat="47.76219" lon="9.53075">
        <ele>516</ele>
        <time>2011-04-16T01:28:09Z</time>
        <course>103.963256265502</course>
        <speed>7.44367809526265</speed>
      </trkpt>
      <trkpt lat="47.76196" lon="9.5319">
        <ele>516</ele>
        <time>2011-04-16T01:28:21Z</time>
        <course>119.20938464599</course>
        <speed>7.43907020734907</speed>
      </trkpt>
      <trkpt lat="47.76156" lon="9.53279">
        <ele>517</ele>
        <time>2011-04-16T01:28:32Z</time>
        <course>106.272204898586</course>
        <speed>8.3177493315113</speed>
      </trkpt>
      <trkpt lat="47.76092" lon="9.53551">
        <ele>516</ele>
        <time>2011-04-16T01:28:58Z</time>
        <course>98.7170810183072</course>
        <speed>8.31312570432822</speed>
      </trkpt>
      <trkpt lat="47.76082" lon="9.53632">
        <ele>513</ele>
        <time>2011-04-16T01:29:05Z</time>
        <course>108.294015808944</course>
        <speed>8.32001396239793</speed>
      </trkpt>
      <trkpt lat="47.76037" lon="9.53801">
        <ele>509</ele>
        <time>2011-04-16T01:29:22Z</time>
        <course>78.2839226223219</course>
        <speed>7.23114636999908</speed>
      </trkpt>
      <trkpt lat="47.76044" lon="9.53843">
        <ele>509</ele>
        <time>2011-04-16T01:29:26Z</time>
        <course>33.8083527207142</course>
        <speed>7.22521399966261</speed>
      </trkpt>
      <trkpt lat="47.76122" lon="9.53908">
        <ele>510</ele>
        <time>2011-04-16T01:29:40Z</time>
        <course>52.4253181551365</course>
        <speed>8.32077290130455</speed>
      </trkpt>
      <trkpt lat="47.76206" lon="9.54044">
        <ele>509</ele>
        <time>2011-04-16T01:29:56Z</time>
        <course>87.1446572924274</course>
        <speed>8.31424499837643</speed>
      </trkpt>
      <trkpt lat="47.76207" lon="9.54069">
        <ele>508</ele>
        <time>2011-04-16T01:29:59Z</time>
        <course>128.166183311774</course>
        <speed>8.32212344226677</speed>
      </trkpt>
      <trkpt lat="47.76171" lon="9.54126">
        <ele>506</ele>
        <time>2011-04-16T01:30:06Z</time>
        <course>140.05931191098</course>
        <speed>8.31646648716311</speed>
      </trkpt>
      <trkpt lat="47.76074" lon="9.54227">
        <ele>503</ele>
        <time>2011-04-16T01:30:21Z</time>
        <course>190.294234585641</course>
        <speed>8.31546487585991</speed>
      </trkpt>
      <trkpt lat="47.76012" lon="9.54213">
        <ele>500</ele>
        <time>2011-04-16T01:30:30Z</time>
        <course>161.287715971293</course>
        <speed>8.31145501114489</speed>
      </trkpt>
      <trkpt lat="47.75993" lon="9.54221">
        <ele>499</ele>
        <time>2011-04-16T01:30:32Z</time>
        <course>123.007975487024</course>
        <speed>8.31890457317404</speed>
      </trkpt>
      <trkpt lat="47.75871" lon="9.54454">
        <ele>491</ele>
        <time>2011-04-16T01:30:59Z</time>
        <course>112.774343913545</course>
        <speed>8.31868209587676</speed>
      </trkpt>
      <trkpt lat="47.75827" lon="9.54584">
        <ele>488</ele>
        <time>2011-04-16T01:31:12Z</time>
        <course>103.730796440867</course>
        <speed>8.31793304372739</speed>
      </trkpt>
      <trkpt lat="47.75799" lon="9.54726">
        <ele>485</ele>
        <time>2011-04-16T01:31:25Z</time>
        <course>94.017539754997</course>
        <speed>8.31826428632544</speed>
      </trkpt>
      <trkpt lat="47.7579" lon="9.54884">
        <ele>482</ele>
        <time>2011-04-16T01:31:40Z</time>
        <course>111.237762733428</course>
        <speed>8.31774919206214</speed>
      </trkpt>
      <trkpt lat="47.75657" lon="9.55307">
        <ele>469</ele>
        <time>2011-04-16T01:32:22Z</time>
        <course>122.895783567226</course>
        <speed>8.31785145695507</speed>
      </trkpt>
      <trkpt lat="47.75598" lon="9.5542">
        <ele>465</ele>
        <time>2011-04-16T01:32:34Z</time>
        <course>127.963094424194</course>
        <speed>8.31835993938559</speed>
      </trkpt>
      <trkpt lat="47.75415" lon="9.5571">
        <ele>457</ele>
        <time>2011-04-16T01:33:10Z</time>
        <course>126.285263031278</course>
        <speed>8.31969551252251</speed>
      </trkpt>
      <trkpt lat="47.75317" lon="9.55875">
        <ele>452</ele>
        <time>2011-04-16T01:33:30Z</time>
        <course>100.638696803475</course>
        <speed>8.31786238130937</speed>
      </trkpt>
      <trkpt lat="47.75254" lon="9.56287">
        <ele>439</ele>
        <time>2011-04-16T01:34:08Z</time>
        <course>98.6259293709978</course>
        <speed>8.31797502725601</speed>
      </trkpt>
      <trkpt lat="47.75211" lon="9.56635">
        <ele>434</ele>
        <time>2011-04-16T01:34:40Z</time>
        <course>97.3043294089484</course>
        <speed>8.31568975859409</speed>
      </trkpt>
      <trkpt lat="47.75203" lon="9.56712">
        <ele>432</ele>
        <time>2011-04-16T01:34:47Z</time>
        <course>82.9083554002773</course>
        <speed>8.31716062767773</speed>
      </trkpt>
      <trkpt lat="47.7523" lon="9.56982">
        <ele>427</ele>
        <time>2011-04-16T01:35:11Z</time>
        <course>73.548438322275</course>
        <speed>8.31504178306933</speed>
      </trkpt>
      <trkpt lat="47.75251" lon="9.5707">
        <ele>425</ele>
        <time>2011-04-16T01:35:20Z</time>
        <course>88.3745373187831</course>
        <speed>8.31813287304957</speed>
      </trkpt>
      <trkpt lat="47.75256" lon="9.57293">
        <ele>421</ele>
        <time>2011-04-16T01:35:40Z</time>
        <course>42.7281375614151</course>
        <speed>6.76979239338417</speed>
      </trkpt>
      <trkpt lat="47.75326" lon="9.57373">
        <ele>422</ele>
        <time>2011-04-16T01:35:54Z</time>
        <course>42.3262859033745</course>
        <speed>6.7743168647816</speed>
      </trkpt>
      <trkpt lat="47.75381" lon="9.57435">
        <ele>423</ele>
        <time>2011-04-16T01:36:05Z</time>
        <course>25.6256100872275</course>
        <speed>6.91098306733857</speed>
      </trkpt>
      <trkpt lat="47.75413" lon="9.57454">
        <ele>423</ele>
        <time>2011-04-16T01:36:11Z</time>
        <course>84.6019057289173</course>
        <speed>6.91508282514615</speed>
      </trkpt>
      <trkpt lat="47.75429" lon="9.57665">
        <ele>425</ele>
        <time>2011-04-16T01:36:34Z</time>
        <course>15.3956556900341</course>
        <speed>5.86006083981037</speed>
      </trkpt>
      <trkpt lat="47.75596" lon="9.57722">
        <ele>429</ele>
        <time>2011-04-16T01:37:06Z</time>
        <course>32.0946756969497</course>
        <speed>6.95406999198049</speed>
      </trkpt>
      <trkpt lat="47.75659" lon="9.57771">
        <ele>429</ele>
        <time>2011-04-16T01:37:18Z</time>
        <course>6.56639031292955</course>
        <speed>6.95754240205589</speed>
      </trkpt>
      <trkpt lat="47.75771" lon="9.57787">
        <ele>431</ele>
        <time>2011-04-16T01:37:36Z</time>
        <course>1.11770632429604</course>
        <speed>6.27128408573467</speed>
      </trkpt>
      <trkpt lat="47.75936" lon="9.57791">
        <ele>434</ele>
        <time>2011-04-16T01:38:05Z</time>
        <course>38.8224848950401</course>
        <speed>8.30353126299835</speed>
      </trkpt>
      <trkpt lat="47.75952" lon="9.57807">
        <ele>433</ele>
        <time>2011-04-16T01:38:07Z</time>
        <course>95.6388340995341</course>
        <speed>8.31747620772609</speed>
      </trkpt>
      <trkpt lat="47.75934" lon="9.58032">
        <ele>430</ele>
        <time>2011-04-16T01:38:28Z</time>
        <course>68.4242450255872</course>
        <speed>8.3022115908451</speed>
      </trkpt>
      <trkpt lat="47.75941" lon="9.58054">
        <ele>430</ele>
        <time>2011-04-16T01:38:30Z</time>
        <course>9.13676751320071</course>
        <speed>8.31749373914465</speed>
      </trkpt>
      <trkpt lat="47.76041" lon="9.58074">
        <ele>430</ele>
        <time>2011-04-16T01:38:44Z</time>
        <course>38.4144738458244</course>
        <speed>8.32053504952749</speed>
      </trkpt>
      <trkpt lat="47.76117" lon="9.58149">
        <ele>430</ele>
        <time>2011-04-16T01:38:56Z</time>
        <course>335.781486551423</course>
        <speed>8.31460534713787</speed>
      </trkpt>
      <trkpt lat="47.76192" lon="9.58107">
        <ele>430</ele>
        <time>2011-04-16T01:39:06Z</time>
        <course>32.4476486435269</course>
        <speed>8.32231898253547</speed>
      </trkpt>
      <trkpt lat="47.76216" lon="9.58126">
        <ele>430</ele>
        <time>2011-04-16T01:39:10Z</time>
        <course>9.12252131654302</course>
        <speed>7.21027150215834</speed>
      </trkpt>
      <trkpt lat="47.76256" lon="9.58134">
        <ele>430</ele>
        <time>2011-04-16T01:39:16Z</time>
        <course>30.6714261816191</course>
        <speed>7.21270744959803</speed>
      </trkpt>
      <trkpt lat="47.76325" lon="9.58185">
        <ele>431</ele>
        <time>2011-04-16T01:39:28Z</time>
        <course>41.9839378389366</course>
        <speed>4.96172311059903</speed>
      </trkpt>
      <trkpt lat="47.76431" lon="9.58304">
        <ele>436</ele>
        <time>2011-04-16T01:39:58Z</time>
        <course>48.1041242339926</course>
        <speed>5.29654428925533</speed>
      </trkpt>
      <trkpt lat="47.765" lon="9.584">
        <ele>439</ele>
        <time>2011-04-16T01:40:18Z</time>
        <course>32.3714711061902</course>
        <speed>8.31646993025343</speed>
      </trkpt>
      <trkpt lat="47.76596" lon="9.58476">
        <ele>439</ele>
        <time>2011-04-16T01:40:32Z</time>
        <course>50.2915634533594</course>
        <speed>8.32004759452502</speed>
      </trkpt>
      <trkpt lat="47.76689" lon="9.58616">
        <ele>434</ele>
        <time>2011-04-16T01:40:50Z</time>
        <course>59.1939226761484</course>
        <speed>8.31386784737425</speed>
      </trkpt>
      <trkpt lat="47.7672" lon="9.58681">
        <ele>431</ele>
        <time>2011-04-16T01:40:57Z</time>
        <course>88.4523073556552</course>
        <speed>8.31752395262042</speed>
      </trkpt>
      <trkpt lat="47.76724" lon="9.5887">
        <ele>425</ele>
        <time>2011-04-16T01:41:14Z</time>
        <course>83.8791000672815</course>
        <speed>8.3131603010925</speed>
      </trkpt>
      <trkpt lat="47.76727" lon="9.58905">
        <ele>424</ele>
        <time>2011-04-16T01:41:17Z</time>
        <course>83.4505910310723</course>
        <speed>8.31874356857223</speed>
      </trkpt>
      <trkpt lat="47.76745" lon="9.59102">
        <ele>424</ele>
        <time>2011-04-16T01:41:35Z</time>
        <course>109.451844053102</course>
        <speed>7.7257629358415</speed>
      </trkpt>
      <trkpt lat="47.76654" lon="9.59423">
        <ele>425</ele>
        <time>2011-04-16T01:42:09Z</time>
        <course>81.5339041489052</course>
        <speed>7.47837135804644</speed>
      </trkpt>
      <trkpt lat="47.76659" lon="9.59465">
        <ele>425</ele>
        <time>2011-04-16T01:42:13Z</time>
        <course>113.496025561741</course>
        <speed>7.48540793952946</speed>
      </trkpt>
      <trkpt lat="47.76598" lon="9.5964">
        <ele>426</ele>
        <time>2011-04-16T01:42:33Z</time>
        <course>6.6694261296148</course>
        <speed>8.3181301783812</speed>
      </trkpt>
      <trkpt lat="47.76728" lon="9.59659">
        <ele>426</ele>
        <time>2011-04-16T01:42:50Z</time>
        <course>93.467818511387</course>
        <speed>8.32056317576824</speed>
      </trkpt>
      <trkpt lat="47.76722" lon="9.59782">
        <ele>426</ele>
        <time>2011-04-16T01:43:01Z</time>
        <course>358.050695760881</course>
        <speed>8.31970665754145</speed>
      </trkpt>
      <trkpt lat="47.76769" lon="9.5978">
        <ele>426</ele>
        <time>2011-04-16T01:43:07Z</time>
        <course>36.4314995375272</course>
        <speed>7.2494975637677</speed>
      </trkpt>
      <trkpt lat="47.76795" lon="9.59804">
        <ele>426</ele>
        <time>2011-04-16T01:43:12Z</time>
        <course>84.6842910161526</course>
        <speed>7.25079795027353</speed>
      </trkpt>
      <trkpt lat="47.76805" lon="9.59939">
        <ele>427</ele>
        <time>2011-04-16T01:43:26Z</time>
        <course>66.6983055091401</course>
        <speed>8.31896271930808</speed>
      </trkpt>
      <trkpt lat="47.76837" lon="9.60032">
        <ele>427</ele>
        <time>2011-04-16T01:43:36Z</time>
        <course>52.9673641621901</course>
        <speed>8.321936026919</speed>
      </trkpt>
      <trkpt lat="47.76881" lon="9.60105">
        <ele>427</ele>
        <time>2011-04-16T01:43:44Z</time>
        <course>16.856107920557</course>
        <speed>7.43140737935361</speed>
      </trkpt>
      <trkpt lat="47.76939" lon="9.60127">
        <ele>427</ele>
        <time>2011-04-16T01:43:53Z</time>
        <course>22.450830534959</course>
        <speed>7.42981070302807</speed>
      </trkpt>
      <trkpt lat="47.77024" lon="9.60171">
        <ele>428</ele>
        <time>2011-04-16T01:44:07Z</time>
        <course>45.0243369238445</course>
        <speed>8.31756746854166</speed>
      </trkpt>
      <trkpt lat="47.77157" lon="9.60338">
        <ele>428</ele>
        <time>2011-04-16T01:44:30Z</time>
        <course>31.803691546925</course>
        <speed>7.09732301703666</speed>
      </trkpt>
      <trkpt lat="47.77184" lon="9.60359">
        <ele>428</ele>
        <time>2011-04-16T01:44:35Z</time>
        <course>33.5043061520737</course>
        <speed>7.10075978682911</speed>
      </trkpt>
      <trkpt lat="47.77249" lon="9.60413">
        <ele>429</ele>
        <time>2011-04-16T01:44:46Z</time>
        <course>43.8756430721143</course>
        <speed>8.31518260890584</speed>
      </trkpt>
      <trkpt lat="47.77278" lon="9.60448">
        <ele>429</ele>
        <time>2011-04-16T01:44:51Z</time>
        <course>43.8756430721143</course>
        <speed>8.31518260890584</speed>
      </trkpt>
    </trkseg>
  </trk>
</gpx>